sensor_id;sensor_type;location;lat;lon;timestamp;pressure;altitude;pressure_sealevel;temperature;humidity
16030;BME280;34770;49.272;11.070;2022-07-29T00:01:55;97567.69;;;20.09;58.36
16030;BME280;34770;49.272;11.070;2022-07-29T00:04:20;97561.16;;;20.16;58.38
16030;BME280;34770;49.272;11.070;2022-07-29T00:06:46;97564.31;;;20.18;57.98
16030;BME280;34770;49.272;11.070;2022-07-29T00:09:12;97559.25;;;20.06;57.47
16030;BME280;34770;49.272;11.070;2022-07-29T00:11:37;97567.31;;;20.07;58.07
16030;BME280;34770;49.272;11.070;2022-07-29T00:14:04;97565.53;;;20.17;57.35
16030;BME280;34770;49.272;11.070;2022-07-29T00:16:29;97564.44;;;20.11;58.70
16030;BME280;34770;49.272;11.070;2022-07-29T00:18:55;97572.59;;;20.05;59.51
16030;BME280;34770;49.272;11.070;2022-07-29T00:21:20;97552.34;;;20.11;59.39
16030;BME280;34770;49.272;11.070;2022-07-29T00:23:45;97559.84;;;20.21;58.88
16030;BME280;34770;49.272;11.070;2022-07-29T00:26:11;97558.22;;;20.23;58.70
16030;BME280;34770;49.272;11.070;2022-07-29T00:28:36;97556.97;;;20.24;58.87
16030;BME280;34770;49.272;11.070;2022-07-29T00:31:02;97544.44;;;20.25;58.96
16030;BME280;34770;49.272;11.070;2022-07-29T00:33:28;97542.31;;;20.33;58.11
16030;BME280;34770;49.272;11.070;2022-07-29T00:35:54;97510.41;;;20.09;58.86
16030;BME280;34770;49.272;11.070;2022-07-29T00:38:19;97534.38;;;20.24;58.08
16030;BME280;34770;49.272;11.070;2022-07-29T00:40:46;97532.41;;;20.21;57.22
16030;BME280;34770;49.272;11.070;2022-07-29T00:43:13;97504.91;;;19.98;57.34
16030;BME280;34770;49.272;11.070;2022-07-29T00:45:39;97527.91;;;19.97;58.22
16030;BME280;34770;49.272;11.070;2022-07-29T00:48:05;97509.34;;;19.99;58.99
16030;BME280;34770;49.272;11.070;2022-07-29T00:50:31;97511.06;;;19.58;60.35
16030;BME280;34770;49.272;11.070;2022-07-29T00:52:57;97506.72;;;19.81;59.39
16030;BME280;34770;49.272;11.070;2022-07-29T00:55:23;97492.16;;;19.86;59.97
16030;BME280;34770;49.272;11.070;2022-07-29T00:57:49;97495.66;;;19.94;59.01
16030;BME280;34770;49.272;11.070;2022-07-29T01:00:20;97492.44;;;19.96;59.25
16030;BME280;34770;49.272;11.070;2022-07-29T01:02:47;97499.91;;;19.79;60.15
16030;BME280;34770;49.272;11.070;2022-07-29T01:05:14;97493.88;;;19.76;60.79
16030;BME280;34770;49.272;11.070;2022-07-29T01:07:42;97474.31;;;19.62;61.07
16030;BME280;34770;49.272;11.070;2022-07-29T01:10:09;97490.00;;;19.67;60.58
16030;BME280;34770;49.272;11.070;2022-07-29T01:12:36;97493.72;;;19.56;60.84
16030;BME280;34770;49.272;11.070;2022-07-29T01:15:04;97492.91;;;19.59;60.40
16030;BME280;34770;49.272;11.070;2022-07-29T01:17:36;97501.78;;;19.58;60.40
16030;BME280;34770;49.272;11.070;2022-07-29T01:32:01;97496.75;;;19.42;61.27
16030;BME280;34770;49.272;11.070;2022-07-29T01:34:35;97504.28;;;19.52;61.14
16030;BME280;34770;49.272;11.070;2022-07-29T01:37:23;97482.66;;;19.38;61.05
16030;BME280;34770;49.272;11.070;2022-07-29T01:39:54;97493.03;;;19.49;61.35
16030;BME280;34770;49.272;11.070;2022-07-29T01:42:39;97493.72;;;19.25;61.30
16030;BME280;34770;49.272;11.070;2022-07-29T01:45:36;97507.72;;;19.36;62.07
16030;BME280;34770;49.272;11.070;2022-07-29T01:50:35;97494.16;;;19.20;62.44
16030;BME280;34770;49.272;11.070;2022-07-29T01:53:04;97499.56;;;19.07;63.33
16030;BME280;34770;49.272;11.070;2022-07-29T01:55:35;97499.97;;;19.06;63.40
16030;BME280;34770;49.272;11.070;2022-07-29T01:58:04;97465.25;;;18.74;63.39
16030;BME280;34770;49.272;11.070;2022-07-29T02:00:32;97465.19;;;18.78;63.61
16030;BME280;34770;49.272;11.070;2022-07-29T02:03:03;97487.91;;;19.05;63.20
16030;BME280;34770;49.272;11.070;2022-07-29T02:05:30;97471.88;;;18.99;62.91
16030;BME280;34770;49.272;11.070;2022-07-29T02:07:58;97481.31;;;19.19;62.15
16030;BME280;34770;49.272;11.070;2022-07-29T02:10:28;97468.44;;;19.18;62.73
16030;BME280;34770;49.272;11.070;2022-07-29T02:12:56;97483.66;;;19.24;62.92
16030;BME280;34770;49.272;11.070;2022-07-29T02:15:24;97487.75;;;19.20;62.71
16030;BME280;34770;49.272;11.070;2022-07-29T02:17:54;97481.31;;;19.19;62.19
16030;BME280;34770;49.272;11.070;2022-07-29T02:20:22;97488.91;;;19.22;62.66
16030;BME280;34770;49.272;11.070;2022-07-29T02:22:51;97482.94;;;19.17;62.35
16030;BME280;34770;49.272;11.070;2022-07-29T02:25:17;97480.50;;;19.19;63.09
16030;BME280;34770;49.272;11.070;2022-07-29T02:27:44;97485.63;;;19.27;62.81
16030;BME280;34770;49.272;11.070;2022-07-29T02:30:11;97476.41;;;19.23;63.08
16030;BME280;34770;49.272;11.070;2022-07-29T02:32:39;97467.72;;;19.07;63.00
16030;BME280;34770;49.272;11.070;2022-07-29T02:35:07;97475.06;;;19.01;62.74
16030;BME280;34770;49.272;11.070;2022-07-29T02:37:33;97494.59;;;19.19;62.66
16030;BME280;34770;49.272;11.070;2022-07-29T02:40:00;97475.28;;;19.17;63.06
16030;BME280;34770;49.272;11.070;2022-07-29T02:42:27;97484.84;;;19.27;63.19
16030;BME280;34770;49.272;11.070;2022-07-29T02:44:54;97487.22;;;19.28;63.31
16030;BME280;34770;49.272;11.070;2022-07-29T02:47:29;97484.03;;;19.26;63.60
16030;BME280;34770;49.272;11.070;2022-07-29T02:50:03;97484.41;;;19.28;63.38
16030;BME280;34770;49.272;11.070;2022-07-29T02:55:19;97479.00;;;19.07;63.77
16030;BME280;34770;49.272;11.070;2022-07-29T02:57:53;97482.56;;;19.15;63.50
16030;BME280;34770;49.272;11.070;2022-07-29T03:00:20;97483.88;;;19.06;64.08
16030;BME280;34770;49.272;11.070;2022-07-29T03:02:50;97482.69;;;19.04;63.95
16030;BME280;34770;49.272;11.070;2022-07-29T03:05:19;97490.06;;;18.90;64.14
16030;BME280;34770;49.272;11.070;2022-07-29T03:07:47;97461.53;;;18.81;64.55
16030;BME280;34770;49.272;11.070;2022-07-29T03:10:14;97488.88;;;18.91;64.90
16030;BME280;34770;49.272;11.070;2022-07-29T03:12:40;97480.41;;;18.88;64.85
16030;BME280;34770;49.272;11.070;2022-07-29T03:15:06;97490.84;;;18.94;64.58
16030;BME280;34770;49.272;11.070;2022-07-29T03:17:33;97498.06;;;18.95;64.46
16030;BME280;34770;49.272;11.070;2022-07-29T03:19:59;97489.19;;;18.97;64.51
16030;BME280;34770;49.272;11.070;2022-07-29T03:22:25;97495.22;;;18.99;64.55
16030;BME280;34770;49.272;11.070;2022-07-29T03:24:51;97472.75;;;18.88;64.24
16030;BME280;34770;49.272;11.070;2022-07-29T03:27:16;97493.63;;;18.98;64.83
16030;BME280;34770;49.272;11.070;2022-07-29T03:29:42;97500.47;;;18.97;64.99
16030;BME280;34770;49.272;11.070;2022-07-29T03:32:07;97506.53;;;18.95;64.92
16030;BME280;34770;49.272;11.070;2022-07-29T03:34:33;97502.53;;;18.89;64.30
16030;BME280;34770;49.272;11.070;2022-07-29T03:36:58;97508.59;;;18.88;64.90
16030;BME280;34770;49.272;11.070;2022-07-29T03:39:27;97509.78;;;18.90;64.64
16030;BME280;34770;49.272;11.070;2022-07-29T03:41:55;97500.16;;;18.88;65.11
16030;BME280;34770;49.272;11.070;2022-07-29T03:44:24;97506.25;;;18.79;64.71
16030;BME280;34770;49.272;11.070;2022-07-29T03:46:51;97503.47;;;18.75;65.27
16030;BME280;34770;49.272;11.070;2022-07-29T03:49:20;97503.25;;;18.59;65.54
16030;BME280;34770;49.272;11.070;2022-07-29T03:51:47;97505.66;;;18.57;66.28
16030;BME280;34770;49.272;11.070;2022-07-29T03:54:13;97481.72;;;18.30;66.97
16030;BME280;34770;49.272;11.070;2022-07-29T03:56:42;97502.22;;;18.34;66.68
16030;BME280;34770;49.272;11.070;2022-07-29T03:59:09;97499.06;;;18.29;67.60
16030;BME280;34770;49.272;11.070;2022-07-29T04:01:36;97494.09;;;18.44;67.40
16030;BME280;34770;49.272;11.070;2022-07-29T04:04:04;97507.03;;;18.38;67.42
16030;BME280;34770;49.272;11.070;2022-07-29T04:06:43;97514.41;;;18.21;66.92
16030;BME280;34770;49.272;11.070;2022-07-29T04:09:10;97516.41;;;18.20;67.19
16030;BME280;34770;49.272;11.070;2022-07-29T04:11:38;97520.16;;;17.99;67.65
16030;BME280;34770;49.272;11.070;2022-07-29T04:14:03;97527.03;;;17.94;68.63
16030;BME280;34770;49.272;11.070;2022-07-29T04:16:29;97536.03;;;17.60;70.41
16030;BME280;34770;49.272;11.070;2022-07-29T04:18:54;97538.03;;;17.63;70.05
16030;BME280;34770;49.272;11.070;2022-07-29T04:21:19;97534.75;;;17.76;69.42
16030;BME280;34770;49.272;11.070;2022-07-29T04:23:45;97530.69;;;17.84;69.57
16030;BME280;34770;49.272;11.070;2022-07-29T04:26:14;97536.25;;;18.02;69.19
16030;BME280;34770;49.272;11.070;2022-07-29T04:28:39;97546.63;;;18.12;69.18
16030;BME280;34770;49.272;11.070;2022-07-29T04:31:05;97531.38;;;18.10;69.29
16030;BME280;34770;49.272;11.070;2022-07-29T04:33:30;97531.03;;;18.00;68.68
16030;BME280;34770;49.272;11.070;2022-07-29T04:35:56;97540.28;;;17.97;68.75
16030;BME280;34770;49.272;11.070;2022-07-29T04:38:21;97540.66;;;18.07;68.53
16030;BME280;34770;49.272;11.070;2022-07-29T04:40:47;97545.06;;;18.11;69.30
16030;BME280;34770;49.272;11.070;2022-07-29T04:43:12;97547.13;;;18.00;69.76
16030;BME280;34770;49.272;11.070;2022-07-29T04:45:37;97550.09;;;17.60;70.89
16030;BME280;34770;49.272;11.070;2022-07-29T04:48:03;97547.19;;;17.78;70.01
16030;BME280;34770;49.272;11.070;2022-07-29T04:50:29;97551.22;;;17.77;70.66
16030;BME280;34770;49.272;11.070;2022-07-29T04:52:54;97554.03;;;17.77;71.12
16030;BME280;34770;49.272;11.070;2022-07-29T04:55:19;97552.44;;;17.80;70.50
16030;BME280;34770;49.272;11.070;2022-07-29T04:57:45;97546.81;;;17.80;70.57
16030;BME280;34770;49.272;11.070;2022-07-29T05:00:11;97546.81;;;17.80;70.95
16030;BME280;34770;49.272;11.070;2022-07-29T05:02:36;97547.25;;;17.67;71.40
16030;BME280;34770;49.272;11.070;2022-07-29T05:05:02;97544.81;;;17.73;71.00
16030;BME280;34770;49.272;11.070;2022-07-29T05:07:27;97555.22;;;17.87;70.71
16030;BME280;34770;49.272;11.070;2022-07-29T05:09:53;97553.19;;;17.95;70.28
16030;BME280;34770;49.272;11.070;2022-07-29T05:12:18;97553.84;;;18.17;69.39
16030;BME280;34770;49.272;11.070;2022-07-29T05:14:43;97557.72;;;18.38;68.69
16030;BME280;34770;49.272;11.070;2022-07-29T05:17:09;97550.03;;;18.45;68.77
16030;BME280;34770;49.272;11.070;2022-07-29T05:19:34;97556.38;;;18.57;68.39
16030;BME280;34770;49.272;11.070;2022-07-29T05:22:00;97559.00;;;18.82;67.70
16030;BME280;34770;49.272;11.070;2022-07-29T05:24:25;97551.63;;;18.99;66.44
16030;BME280;34770;49.272;11.070;2022-07-29T05:26:51;97545.47;;;19.08;67.27
16030;BME280;34770;49.272;11.070;2022-07-29T05:29:16;97554.22;;;19.21;66.32
16030;BME280;34770;49.272;11.070;2022-07-29T05:31:41;97555.91;;;19.49;65.42
16030;BME280;34770;49.272;11.070;2022-07-29T05:34:07;97554.63;;;19.57;64.58
16030;BME280;34770;49.272;11.070;2022-07-29T05:36:32;97552.31;;;19.80;64.32
16030;BME280;34770;49.272;11.070;2022-07-29T05:38:58;97550.44;;;20.00;65.01
16030;BME280;34770;49.272;11.070;2022-07-29T05:41:24;97549.38;;;20.21;64.34
16030;BME280;34770;49.272;11.070;2022-07-29T05:43:50;97537.09;;;20.32;64.06
16030;BME280;34770;49.272;11.070;2022-07-29T05:46:15;97549.28;;;20.52;63.53
16030;BME280;34770;49.272;11.070;2022-07-29T05:48:40;97547.50;;;20.62;62.86
16030;BME280;34770;49.272;11.070;2022-07-29T05:51:06;97548.38;;;20.86;61.96
16030;BME280;34770;49.272;11.070;2022-07-29T05:53:31;97549.47;;;20.93;61.92
16030;BME280;34770;49.272;11.070;2022-07-29T05:55:57;97549.56;;;21.09;62.37
16030;BME280;34770;49.272;11.070;2022-07-29T05:58:22;97545.19;;;21.28;61.54
16030;BME280;34770;49.272;11.070;2022-07-29T06:00:47;97537.56;;;21.45;60.88
16030;BME280;34770;49.272;11.070;2022-07-29T06:03:13;97542.09;;;21.63;60.99
16030;BME280;34770;49.272;11.070;2022-07-29T06:05:38;97535.97;;;21.84;60.24
16030;BME280;34770;49.272;11.070;2022-07-29T06:08:04;97541.31;;;21.99;59.78
16030;BME280;34770;49.272;11.070;2022-07-29T06:10:32;97545.13;;;21.92;60.47
16030;BME280;34770;49.272;11.070;2022-07-29T06:12:57;97543.00;;;21.56;62.01
16030;BME280;34770;49.272;11.070;2022-07-29T06:15:23;97544.44;;;21.44;62.63
16030;BME280;34770;49.272;11.070;2022-07-29T06:17:48;97539.38;;;21.35;63.03
16030;BME280;34770;49.272;11.070;2022-07-29T06:20:13;97543.09;;;21.52;62.65
16030;BME280;34770;49.272;11.070;2022-07-29T06:22:39;97546.97;;;21.82;62.20
16030;BME280;34770;49.272;11.070;2022-07-29T06:25:04;97552.09;;;21.88;61.64
16030;BME280;34770;49.272;11.070;2022-07-29T06:27:30;97551.47;;;21.80;61.96
16030;BME280;34770;49.272;11.070;2022-07-29T06:29:56;97547.38;;;21.81;62.22
16030;BME280;34770;49.272;11.070;2022-07-29T06:32:21;97542.75;;;21.71;62.16
16030;BME280;34770;49.272;11.070;2022-07-29T06:34:47;97543.84;;;21.77;61.95
16030;BME280;34770;49.272;11.070;2022-07-29T06:37:13;97553.25;;;22.10;61.58
16030;BME280;34770;49.272;11.070;2022-07-29T06:39:39;97548.22;;;22.35;60.08
16030;BME280;34770;49.272;11.070;2022-07-29T06:42:05;97551.38;;;22.57;59.13
16030;BME280;34770;49.272;11.070;2022-07-29T06:44:30;97557.75;;;22.61;58.68
16030;BME280;34770;49.272;11.070;2022-07-29T06:46:56;97543.22;;;22.75;58.09
16030;BME280;34770;49.272;11.070;2022-07-29T06:49:22;97549.75;;;22.89;58.03
16030;BME280;34770;49.272;11.070;2022-07-29T06:51:49;97554.28;;;23.19;57.00
16030;BME280;34770;49.272;11.070;2022-07-29T06:54:14;97546.13;;;23.21;57.34
16030;BME280;34770;49.272;11.070;2022-07-29T06:56:40;97552.59;;;23.51;56.26
16030;BME280;34770;49.272;11.070;2022-07-29T06:59:11;97558.66;;;23.53;56.54
16030;BME280;34770;49.272;11.070;2022-07-29T07:01:38;97553.91;;;23.63;56.02
16030;BME280;34770;49.272;11.070;2022-07-29T07:04:04;97553.38;;;23.39;57.04
16030;BME280;34770;49.272;11.070;2022-07-29T07:06:29;97552.19;;;23.66;56.52
16030;BME280;34770;49.272;11.070;2022-07-29T07:08:54;97555.84;;;23.96;55.93
16030;BME280;34770;49.272;11.070;2022-07-29T07:11:20;97546.97;;;24.06;55.31
16030;BME280;34770;49.272;11.070;2022-07-29T07:13:45;97557.94;;;23.79;55.19
16030;BME280;34770;49.272;11.070;2022-07-29T07:16:11;97552.88;;;23.99;54.91
16030;BME280;34770;49.272;11.070;2022-07-29T07:18:36;97544.63;;;24.31;54.34
16030;BME280;34770;49.272;11.070;2022-07-29T07:21:01;97546.88;;;24.36;53.57
16030;BME280;34770;49.272;11.070;2022-07-29T07:23:27;97546.19;;;24.06;53.37
16030;BME280;34770;49.272;11.070;2022-07-29T07:25:52;97549.38;;;24.08;54.57
16030;BME280;34770;49.272;11.070;2022-07-29T07:28:18;97547.69;;;24.24;54.32
16030;BME280;34770;49.272;11.070;2022-07-29T07:30:44;97552.78;;;24.16;54.04
16030;BME280;34770;49.272;11.070;2022-07-29T07:33:10;97549.84;;;24.32;53.18
16030;BME280;34770;49.272;11.070;2022-07-29T07:35:35;97547.78;;;24.20;53.72
16030;BME280;34770;49.272;11.070;2022-07-29T07:38:01;97543.22;;;24.35;53.70
16030;BME280;34770;49.272;11.070;2022-07-29T07:40:26;97547.44;;;24.69;52.91
16030;BME280;34770;49.272;11.070;2022-07-29T07:42:52;97540.47;;;24.96;52.25
16030;BME280;34770;49.272;11.070;2022-07-29T07:45:17;97544.81;;;24.88;52.56
16030;BME280;34770;49.272;11.070;2022-07-29T07:47:43;97541.16;;;25.00;51.83
16030;BME280;34770;49.272;11.070;2022-07-29T07:50:10;97539.91;;;25.37;51.50
16030;BME280;34770;49.272;11.070;2022-07-29T07:52:48;97529.28;;;25.37;49.89
16030;BME280;34770;49.272;11.070;2022-07-29T07:55:14;97534.75;;;25.67;50.56
16030;BME280;34770;49.272;11.070;2022-07-29T07:57:40;97537.44;;;25.26;50.39
16030;BME280;34770;49.272;11.070;2022-07-29T08:00:06;97539.56;;;25.35;50.20
16030;BME280;34770;49.272;11.070;2022-07-29T08:02:32;97508.06;;;25.51;49.78
16030;BME280;34770;49.272;11.070;2022-07-29T08:04:57;97537.81;;;25.72;50.01
16030;BME280;34770;49.272;11.070;2022-07-29T08:07:23;97520.50;;;25.67;49.45
16030;BME280;34770;49.272;11.070;2022-07-29T08:09:48;97519.00;;;25.53;49.72
16030;BME280;34770;49.272;11.070;2022-07-29T08:12:13;97521.72;;;25.56;50.39
16030;BME280;34770;49.272;11.070;2022-07-29T08:14:39;97532.69;;;25.10;51.22
16030;BME280;34770;49.272;11.070;2022-07-29T08:17:04;97533.84;;;25.47;51.55
16030;BME280;34770;49.272;11.070;2022-07-29T08:19:29;97523.88;;;25.96;50.05
16030;BME280;34770;49.272;11.070;2022-07-29T08:21:55;97527.66;;;25.93;49.77
16030;BME280;34770;49.272;11.070;2022-07-29T08:24:21;97528.16;;;26.01;49.42
16030;BME280;34770;49.272;11.070;2022-07-29T08:27:05;97495.50;;;25.93;48.78
16030;BME280;34770;49.272;11.070;2022-07-29T08:29:31;97522.06;;;26.43;47.83
16030;BME280;34770;49.272;11.070;2022-07-29T08:31:56;97494.81;;;26.11;48.73
16030;BME280;34770;49.272;11.070;2022-07-29T08:34:22;97514.06;;;26.29;48.49
16030;BME280;34770;49.272;11.070;2022-07-29T08:36:47;97515.41;;;26.47;48.37
16030;BME280;34770;49.272;11.070;2022-07-29T08:39:12;97512.66;;;26.34;48.63
16030;BME280;34770;49.272;11.070;2022-07-29T08:41:38;97517.03;;;26.57;47.60
16030;BME280;34770;49.272;11.070;2022-07-29T08:44:03;97515.91;;;26.95;46.91
16030;BME280;34770;49.272;11.070;2022-07-29T08:46:29;97490.34;;;27.38;45.98
16030;BME280;34770;49.272;11.070;2022-07-29T08:48:55;97512.13;;;27.54;44.94
16030;BME280;34770;49.272;11.070;2022-07-29T08:51:21;97525.59;;;27.63;44.44
16030;BME280;34770;49.272;11.070;2022-07-29T08:53:49;97509.97;;;27.92;44.28
16030;BME280;34770;49.272;11.070;2022-07-29T08:56:15;97504.94;;;28.39;43.33
16030;BME280;34770;49.272;11.070;2022-07-29T08:58:46;97509.06;;;28.38;43.08
16030;BME280;34770;49.272;11.070;2022-07-29T09:01:17;97503.78;;;28.12;43.03
16030;BME280;34770;49.272;11.070;2022-07-29T09:03:44;97502.22;;;28.44;42.80
16030;BME280;34770;49.272;11.070;2022-07-29T09:06:15;97506.28;;;28.53;42.41
16030;BME280;34770;49.272;11.070;2022-07-29T09:08:42;97512.84;;;27.82;43.28
16030;BME280;34770;49.272;11.070;2022-07-29T09:11:07;97509.09;;;27.48;44.33
16030;BME280;34770;49.272;11.070;2022-07-29T09:13:34;97494.16;;;27.35;44.50
16030;BME280;34770;49.272;11.070;2022-07-29T09:15:59;97506.56;;;27.32;45.34
16030;BME280;34770;49.272;11.070;2022-07-29T09:18:39;97512.25;;;27.78;44.05
16030;BME280;34770;49.272;11.070;2022-07-29T09:21:07;97502.81;;;27.96;43.10
16030;BME280;34770;49.272;11.070;2022-07-29T09:26:34;97509.25;;;28.68;40.78
16030;BME280;34770;49.272;11.070;2022-07-29T09:28:59;97494.16;;;28.91;40.59
16030;BME280;34770;49.272;11.070;2022-07-29T09:31:36;97487.38;;;29.28;40.42
16030;BME280;34770;49.272;11.070;2022-07-29T09:34:03;97501.88;;;29.49;39.56
16030;BME280;34770;49.272;11.070;2022-07-29T09:36:28;97470.53;;;29.45;39.14
16030;BME280;34770;49.272;11.070;2022-07-29T09:39:03;97505.97;;;29.08;39.85
16030;BME280;34770;49.272;11.070;2022-07-29T09:41:29;97498.81;;;29.52;39.37
16030;BME280;34770;49.272;11.070;2022-07-29T09:43:58;97498.03;;;29.27;38.80
16030;BME280;34770;49.272;11.070;2022-07-29T09:46:24;97498.06;;;29.03;39.26
16030;BME280;34770;49.272;11.070;2022-07-29T09:51:31;97495.53;;;29.20;39.35
16030;BME280;34770;49.272;11.070;2022-07-29T09:53:56;97497.38;;;29.33;37.45
16030;BME280;34770;49.272;11.070;2022-07-29T09:56:41;97491.78;;;28.90;38.59
16030;BME280;34770;49.272;11.070;2022-07-29T09:59:08;97497.47;;;28.99;38.46
16030;BME280;34770;49.272;11.070;2022-07-29T10:01:34;97502.47;;;28.89;39.09
16030;BME280;34770;49.272;11.070;2022-07-29T10:04:01;97486.00;;;27.98;40.08
16030;BME280;34770;49.272;11.070;2022-07-29T10:06:26;97486.53;;;27.69;41.22
16030;BME280;34770;49.272;11.070;2022-07-29T10:08:52;97498.03;;;28.02;40.16
16030;BME280;34770;49.272;11.070;2022-07-29T10:11:18;97477.63;;;27.76;39.92
16030;BME280;34770;49.272;11.070;2022-07-29T10:13:46;97494.44;;;27.83;40.11
16030;BME280;34770;49.272;11.070;2022-07-29T10:16:13;97480.44;;;27.95;40.33
16030;BME280;34770;49.272;11.070;2022-07-29T10:18:39;97477.94;;;28.64;38.64
16030;BME280;34770;49.272;11.070;2022-07-29T10:21:05;97484.41;;;28.98;37.90
16030;BME280;34770;49.272;11.070;2022-07-29T10:23:33;97484.81;;;29.06;37.75
16030;BME280;34770;49.272;11.070;2022-07-29T10:25:59;97485.75;;;28.88;38.77
16030;BME280;34770;49.272;11.070;2022-07-29T10:28:25;97485.50;;;29.94;37.82
16030;BME280;34770;49.272;11.070;2022-07-29T10:30:52;97487.75;;;30.35;35.79
16030;BME280;34770;49.272;11.070;2022-07-29T10:36:27;97479.81;;;30.30;35.38
16030;BME280;34770;49.272;11.070;2022-07-29T10:44:19;97459.38;;;30.58;34.68
16030;BME280;34770;49.272;11.070;2022-07-29T10:46:46;97454.44;;;31.41;33.99
16030;BME280;34770;49.272;11.070;2022-07-29T10:49:16;97458.28;;;30.91;33.54
16030;BME280;34770;49.272;11.070;2022-07-29T10:52:05;97454.44;;;31.41;32.73
16030;BME280;34770;49.272;11.070;2022-07-29T10:57:25;97448.34;;;31.59;32.32
16030;BME280;34770;49.272;11.070;2022-07-29T11:05:06;97440.69;;;31.50;31.50
16030;BME280;34770;49.272;11.070;2022-07-29T11:07:34;97440.00;;;31.35;32.35
16030;BME280;34770;49.272;11.070;2022-07-29T11:15:04;97414.16;;;30.94;32.92
16030;BME280;34770;49.272;11.070;2022-07-29T11:23:16;97421.41;;;31.83;29.81
16030;BME280;34770;49.272;11.070;2022-07-29T11:25:42;97417.50;;;31.86;31.18
16030;BME280;34770;49.272;11.070;2022-07-29T11:28:16;97417.75;;;32.52;29.83
16030;BME280;34770;49.272;11.070;2022-07-29T11:30:53;97419.44;;;33.31;28.38
16030;BME280;34770;49.272;11.070;2022-07-29T11:33:30;97423.16;;;33.82;27.12
16030;BME280;34770;49.272;11.070;2022-07-29T11:36:09;97431.53;;;33.63;27.14
16030;BME280;34770;49.272;11.070;2022-07-29T11:38:36;97419.44;;;33.36;27.46
16030;BME280;34770;49.272;11.070;2022-07-29T11:41:23;97416.59;;;33.59;28.23
16030;BME280;34770;49.272;11.070;2022-07-29T11:43:57;97405.63;;;34.09;26.52
16030;BME280;34770;49.272;11.070;2022-07-29T11:46:45;97412.94;;;34.15;26.72
16030;BME280;34770;49.272;11.070;2022-07-29T11:49:24;97393.16;;;34.76;25.71
16030;BME280;34770;49.272;11.070;2022-07-29T11:51:55;97402.19;;;34.39;25.74
16030;BME280;34770;49.272;11.070;2022-07-29T11:54:26;97382.78;;;33.54;26.78
16030;BME280;34770;49.272;11.070;2022-07-29T11:56:57;97397.19;;;34.16;26.45
16030;BME280;34770;49.272;11.070;2022-07-29T11:59:24;97405.69;;;33.08;27.54
16030;BME280;34770;49.272;11.070;2022-07-29T12:01:57;97402.31;;;33.16;27.04
16030;BME280;34770;49.272;11.070;2022-07-29T12:04:23;97388.53;;;33.60;26.31
16030;BME280;34770;49.272;11.070;2022-07-29T12:06:54;97373.63;;;33.90;26.09
16030;BME280;34770;49.272;11.070;2022-07-29T12:09:21;97389.59;;;35.06;25.12
16030;BME280;34770;49.272;11.070;2022-07-29T12:11:47;97376.97;;;35.87;24.50
16030;BME280;34770;49.272;11.070;2022-07-29T12:14:30;97368.88;;;35.50;24.88
16030;BME280;34770;49.272;11.070;2022-07-29T12:16:57;97375.00;;;32.88;27.07
16030;BME280;34770;49.272;11.070;2022-07-29T12:19:23;97370.59;;;32.06;28.65
16030;BME280;34770;49.272;11.070;2022-07-29T12:21:53;97349.69;;;31.47;29.60
16030;BME280;34770;49.272;11.070;2022-07-29T12:24:20;97384.19;;;31.47;29.32
16030;BME280;34770;49.272;11.070;2022-07-29T12:26:54;97379.72;;;30.73;30.10
16030;BME280;34770;49.272;11.070;2022-07-29T12:29:20;97388.38;;;30.37;30.73
16030;BME280;34770;49.272;11.070;2022-07-29T12:31:46;97393.88;;;30.56;30.40
16030;BME280;34770;49.272;11.070;2022-07-29T12:34:13;97380.34;;;30.06;30.81
16030;BME280;34770;49.272;11.070;2022-07-29T12:36:40;97390.63;;;30.13;30.80
16030;BME280;34770;49.272;11.070;2022-07-29T12:39:07;97387.00;;;29.97;31.59
16030;BME280;34770;49.272;11.070;2022-07-29T12:41:34;97387.00;;;29.97;32.06
16030;BME280;34770;49.272;11.070;2022-07-29T12:43:59;97391.38;;;29.92;32.01
16030;BME280;34770;49.272;11.070;2022-07-29T12:46:25;97370.38;;;29.86;31.81
16030;BME280;34770;49.272;11.070;2022-07-29T12:48:52;97391.94;;;29.67;32.87
16030;BME280;34770;49.272;11.070;2022-07-29T12:51:35;97391.50;;;29.14;34.63
16030;BME280;34770;49.272;11.070;2022-07-29T12:54:13;97390.22;;;29.15;35.18
16030;BME280;34770;49.272;11.070;2022-07-29T12:56:39;97371.44;;;28.99;35.89
16030;BME280;34770;49.272;11.070;2022-07-29T12:59:19;97382.19;;;28.65;38.07
16030;BME280;34770;49.272;11.070;2022-07-29T13:01:47;97391.59;;;28.08;39.86
16030;BME280;34770;49.272;11.070;2022-07-29T13:04:30;97396.78;;;27.85;40.61
16030;BME280;34770;49.272;11.070;2022-07-29T13:07:01;97417.19;;;27.41;41.97
16030;BME280;34770;49.272;11.070;2022-07-29T13:09:40;97418.97;;;26.91;44.32
16030;BME280;34770;49.272;11.070;2022-07-29T13:12:07;97403.84;;;26.63;45.50
16030;BME280;34770;49.272;11.070;2022-07-29T13:14:42;97403.63;;;26.30;46.88
16030;BME280;34770;49.272;11.070;2022-07-29T13:17:11;97405.09;;;26.03;46.99
16030;BME280;34770;49.272;11.070;2022-07-29T13:19:42;97419.22;;;25.66;48.60
16030;BME280;34770;49.272;11.070;2022-07-29T13:22:18;97436.56;;;25.36;49.90
16030;BME280;34770;49.272;11.070;2022-07-29T13:24:59;97423.22;;;24.89;51.07
16030;BME280;34770;49.272;11.070;2022-07-29T13:27:29;97420.56;;;24.59;49.76
16030;BME280;34770;49.272;11.070;2022-07-29T13:30:01;97424.91;;;24.64;50.20
16030;BME280;34770;49.272;11.070;2022-07-29T13:32:28;97435.09;;;24.26;54.95
16030;BME280;34770;49.272;11.070;2022-07-29T13:34:59;97434.19;;;24.16;60.24
16030;BME280;34770;49.272;11.070;2022-07-29T13:37:25;97420.50;;;23.60;62.58
16030;BME280;34770;49.272;11.070;2022-07-29T13:39:51;97432.53;;;23.08;60.76
16030;BME280;34770;49.272;11.070;2022-07-29T13:42:17;97427.28;;;23.07;62.07
16030;BME280;34770;49.272;11.070;2022-07-29T13:44:43;97419.97;;;23.22;60.69